sensor_id;sensor_type;location;lat;lon;timestamp;P1;durP1;ratioP1;P2;durP2;ratioP2
13797;SDS011;6970;51.340;3.240;2024-01-30T00:02:08;11.00;;;5.95;;
13797;SDS011;6970;51.340;3.240;2024-01-30T00:04:35;14.38;;;6.07;;
13797;SDS011;6970;51.340;3.240;2024-01-30T00:07:03;12.07;;;6.30;;
13797;SDS011;6970;51.340;3.240;2024-01-30T00:09:32;12.23;;;5.78;;
13797;SDS011;6970;51.340;3.240;2024-01-30T00:11:59;11.52;;;5.32;;
13797;SDS011;6970;51.340;3.240;2024-01-30T00:14:27;10.48;;;5.60;;
13797;SDS011;6970;51.340;3.240;2024-01-30T00:19:25;12.07;;;6.80;;
13797;SDS011;6970;51.340;3.240;2024-01-30T00:21:52;11.18;;;5.80;;
13797;SDS011;6970;51.340;3.240;2024-01-30T00:24:22;11.55;;;6.43;;
13797;SDS011;6970;51.340;3.240;2024-01-30T00:26:52;12.07;;;5.45;;
13797;SDS011;6970;51.340;3.240;2024-01-30T00:29:19;12.68;;;6.00;;
13797;SDS011;6970;51.340;3.240;2024-01-30T00:31:46;12.75;;;6.20;;
13797;SDS011;6970;51.340;3.240;2024-01-30T00:34:14;11.38;;;6.25;;
13797;SDS011;6970;51.340;3.240;2024-01-30T00:36:44;10.50;;;6.28;;
13797;SDS011;6970;51.340;3.240;2024-01-30T00:41:43;11.35;;;5.80;;
13797;SDS011;6970;51.340;3.240;2024-01-30T00:44:13;13.10;;;5.88;;
13797;SDS011;6970;51.340;3.240;2024-01-30T00:46:42;11.70;;;5.88;;
13797;SDS011;6970;51.340;3.240;2024-01-30T00:51:42;11.88;;;5.72;;
13797;SDS011;6970;51.340;3.240;2024-01-30T00:54:11;11.77;;;5.72;;
13797;SDS011;6970;51.340;3.240;2024-01-30T00:56:41;11.63;;;6.32;;
13797;SDS011;6970;51.340;3.240;2024-01-30T00:59:10;11.07;;;5.20;;
13797;SDS011;6970;51.340;3.240;2024-01-30T01:04:11;10.80;;;5.78;;
13797;SDS011;6970;51.340;3.240;2024-01-30T01:09:11;12.30;;;6.00;;
13797;SDS011;6970;51.340;3.240;2024-01-30T01:11:39;10.80;;;5.80;;
13797;SDS011;6970;51.340;3.240;2024-01-30T01:14:09;11.93;;;5.78;;
13797;SDS011;6970;51.340;3.240;2024-01-30T01:16:37;12.70;;;6.15;;
13797;SDS011;6970;51.340;3.240;2024-01-30T01:21:38;11.65;;;6.13;;
13797;SDS011;6970;51.340;3.240;2024-01-30T01:24:11;10.07;;;5.90;;
13797;SDS011;6970;51.340;3.240;2024-01-30T01:29:12;12.02;;;5.68;;
13797;SDS011;6970;51.340;3.240;2024-01-30T01:31:39;13.23;;;6.07;;
13797;SDS011;6970;51.340;3.240;2024-01-30T01:34:10;11.15;;;6.07;;
13797;SDS011;6970;51.340;3.240;2024-01-30T01:36:38;11.98;;;6.25;;
13797;SDS011;6970;51.340;3.240;2024-01-30T01:39:07;15.55;;;6.15;;
13797;SDS011;6970;51.340;3.240;2024-01-30T01:44:08;11.88;;;5.75;;
13797;SDS011;6970;51.340;3.240;2024-01-30T01:46:38;10.15;;;5.85;;
13797;SDS011;6970;51.340;3.240;2024-01-30T01:51:38;11.23;;;5.30;;
13797;SDS011;6970;51.340;3.240;2024-01-30T01:54:08;10.55;;;5.05;;
13797;SDS011;6970;51.340;3.240;2024-01-30T01:56:35;10.43;;;5.30;;
13797;SDS011;6970;51.340;3.240;2024-01-30T01:59:06;11.05;;;5.30;;
13797;SDS011;6970;51.340;3.240;2024-01-30T02:01:36;11.18;;;6.05;;
13797;SDS011;6970;51.340;3.240;2024-01-30T02:04:05;11.00;;;5.70;;
13797;SDS011;6970;51.340;3.240;2024-01-30T02:06:34;11.02;;;5.32;;
13797;SDS011;6970;51.340;3.240;2024-01-30T02:09:04;12.98;;;6.38;;
13797;SDS011;6970;51.340;3.240;2024-01-30T02:16:35;12.00;;;6.30;;
13797;SDS011;6970;51.340;3.240;2024-01-30T02:19:05;10.85;;;5.82;;
13797;SDS011;6970;51.340;3.240;2024-01-30T02:21:34;12.38;;;6.20;;
13797;SDS011;6970;51.340;3.240;2024-01-30T02:24:01;11.80;;;5.00;;
13797;SDS011;6970;51.340;3.240;2024-01-30T02:26:33;12.07;;;6.05;;
13797;SDS011;6970;51.340;3.240;2024-01-30T02:29:02;10.98;;;5.75;;
13797;SDS011;6970;51.340;3.240;2024-01-30T02:31:30;12.55;;;5.78;;
13797;SDS011;6970;51.340;3.240;2024-01-30T02:34:00;11.07;;;5.90;;
13797;SDS011;6970;51.340;3.240;2024-01-30T02:38:58;12.85;;;5.57;;
13797;SDS011;6970;51.340;3.240;2024-01-30T02:43:55;11.80;;;5.85;;
13797;SDS011;6970;51.340;3.240;2024-01-30T02:46:28;11.95;;;5.80;;
13797;SDS011;6970;51.340;3.240;2024-01-30T02:48:57;11.18;;;5.70;;
13797;SDS011;6970;51.340;3.240;2024-01-30T02:51:27;10.27;;;5.63;;
13797;SDS011;6970;51.340;3.240;2024-01-30T02:53:55;13.70;;;5.60;;
13797;SDS011;6970;51.340;3.240;2024-01-30T02:56:24;11.65;;;6.10;;
13797;SDS011;6970;51.340;3.240;2024-01-30T02:58:51;11.25;;;5.10;;
13797;SDS011;6970;51.340;3.240;2024-01-30T03:01:21;10.73;;;5.13;;
13797;SDS011;6970;51.340;3.240;2024-01-30T03:06:22;11.43;;;4.95;;
13797;SDS011;6970;51.340;3.240;2024-01-30T03:08:49;12.30;;;5.25;;
13797;SDS011;6970;51.340;3.240;2024-01-30T03:11:16;11.32;;;5.47;;
13797;SDS011;6970;51.340;3.240;2024-01-30T03:13:44;12.43;;;5.85;;
13797;SDS011;6970;51.340;3.240;2024-01-30T03:21:14;10.07;;;5.30;;
13797;SDS011;6970;51.340;3.240;2024-01-30T03:23:43;11.23;;;5.82;;
13797;SDS011;6970;51.340;3.240;2024-01-30T03:26:10;11.55;;;5.68;;
13797;SDS011;6970;51.340;3.240;2024-01-30T03:28:41;12.93;;;5.68;;
13797;SDS011;6970;51.340;3.240;2024-01-30T03:31:09;10.35;;;6.07;;
13797;SDS011;6970;51.340;3.240;2024-01-30T03:33:36;11.52;;;5.47;;
13797;SDS011;6970;51.340;3.240;2024-01-30T03:38:37;12.70;;;5.53;;
13797;SDS011;6970;51.340;3.240;2024-01-30T03:41:10;15.02;;;6.20;;
13797;SDS011;6970;51.340;3.240;2024-01-30T03:43:40;11.23;;;5.72;;
13797;SDS011;6970;51.340;3.240;2024-01-30T03:46:07;14.23;;;6.07;;
13797;SDS011;6970;51.340;3.240;2024-01-30T03:48:34;11.50;;;5.28;;
13797;SDS011;6970;51.340;3.240;2024-01-30T03:51:03;11.68;;;5.10;;
13797;SDS011;6970;51.340;3.240;2024-01-30T03:53:31;12.10;;;5.72;;
13797;SDS011;6970;51.340;3.240;2024-01-30T03:55:58;11.80;;;5.35;;
13797;SDS011;6970;51.340;3.240;2024-01-30T03:58:25;11.90;;;5.63;;
13797;SDS011;6970;51.340;3.240;2024-01-30T04:00:52;10.82;;;5.30;;
13797;SDS011;6970;51.340;3.240;2024-01-30T04:03:21;14.52;;;4.88;;
13797;SDS011;6970;51.340;3.240;2024-01-30T04:08:20;13.63;;;5.05;;
13797;SDS011;6970;51.340;3.240;2024-01-30T04:10:49;11.40;;;5.22;;
13797;SDS011;6970;51.340;3.240;2024-01-30T04:13:17;13.65;;;5.57;;
13797;SDS011;6970;51.340;3.240;2024-01-30T04:15:45;11.77;;;5.40;;
13797;SDS011;6970;51.340;3.240;2024-01-30T04:20:43;13.95;;;5.43;;
13797;SDS011;6970;51.340;3.240;2024-01-30T04:23:15;12.20;;;4.90;;
13797;SDS011;6970;51.340;3.240;2024-01-30T04:25:45;14.98;;;4.72;;
13797;SDS011;6970;51.340;3.240;2024-01-30T04:28:12;14.68;;;5.50;;
13797;SDS011;6970;51.340;3.240;2024-01-30T04:30:40;12.02;;;4.78;;
13797;SDS011;6970;51.340;3.240;2024-01-30T04:33:17;12.80;;;4.38;;
13797;SDS011;6970;51.340;3.240;2024-01-30T04:35:44;9.45;;;4.80;;
13797;SDS011;6970;51.340;3.240;2024-01-30T04:38:14;15.63;;;5.72;;
13797;SDS011;6970;51.340;3.240;2024-01-30T04:40:43;15.75;;;5.38;;
13797;SDS011;6970;51.340;3.240;2024-01-30T04:43:12;13.05;;;5.35;;
13797;SDS011;6970;51.340;3.240;2024-01-30T04:45:40;12.55;;;4.95;;
13797;SDS011;6970;51.340;3.240;2024-01-30T04:48:07;11.85;;;4.70;;
13797;SDS011;6970;51.340;3.240;2024-01-30T04:50:35;13.65;;;5.20;;
13797;SDS011;6970;51.340;3.240;2024-01-30T04:53:02;13.25;;;4.85;;
13797;SDS011;6970;51.340;3.240;2024-01-30T04:55:29;13.75;;;5.82;;
13797;SDS011;6970;51.340;3.240;2024-01-30T04:58:00;16.50;;;4.82;;
13797;SDS011;6970;51.340;3.240;2024-01-30T05:00:28;11.32;;;5.10;;
13797;SDS011;6970;51.340;3.240;2024-01-30T05:02:55;13.02;;;5.40;;
13797;SDS011;6970;51.340;3.240;2024-01-30T05:05:23;14.02;;;5.78;;
13797;SDS011;6970;51.340;3.240;2024-01-30T05:07:50;12.38;;;5.20;;
13797;SDS011;6970;51.340;3.240;2024-01-30T05:12:48;14.50;;;5.45;;
13797;SDS011;6970;51.340;3.240;2024-01-30T05:15:17;15.48;;;6.43;;
13797;SDS011;6970;51.340;3.240;2024-01-30T05:17:44;12.10;;;5.05;;
13797;SDS011;6970;51.340;3.240;2024-01-30T05:20:13;13.13;;;5.30;;
13797;SDS011;6970;51.340;3.240;2024-01-30T05:22:42;13.52;;;5.53;;
13797;SDS011;6970;51.340;3.240;2024-01-30T05:25:17;10.75;;;4.75;;
13797;SDS011;6970;51.340;3.240;2024-01-30T05:27:48;11.48;;;4.25;;
13797;SDS011;6970;51.340;3.240;2024-01-30T05:30:17;11.80;;;5.20;;
13797;SDS011;6970;51.340;3.240;2024-01-30T05:32:46;14.88;;;5.43;;
13797;SDS011;6970;51.340;3.240;2024-01-30T05:35:13;10.82;;;4.68;;
13797;SDS011;6970;51.340;3.240;2024-01-30T05:40:12;15.07;;;5.38;;
13797;SDS011;6970;51.340;3.240;2024-01-30T05:45:12;15.35;;;5.32;;
13797;SDS011;6970;51.340;3.240;2024-01-30T05:47:40;16.40;;;5.35;;
13797;SDS011;6970;51.340;3.240;2024-01-30T05:50:11;12.27;;;5.20;;
13797;SDS011;6970;51.340;3.240;2024-01-30T05:57:42;9.45;;;5.10;;
13797;SDS011;6970;51.340;3.240;2024-01-30T06:00:11;11.10;;;5.18;;
13797;SDS011;6970;51.340;3.240;2024-01-30T06:02:38;15.18;;;5.30;;
13797;SDS011;6970;51.340;3.240;2024-01-30T06:05:06;14.85;;;5.22;;
13797;SDS011;6970;51.340;3.240;2024-01-30T06:10:06;15.10;;;6.15;;
13797;SDS011;6970;51.340;3.240;2024-01-30T06:12:35;12.00;;;5.22;;
13797;SDS011;6970;51.340;3.240;2024-01-30T06:17:34;14.50;;;5.25;;
13797;SDS011;6970;51.340;3.240;2024-01-30T06:20:04;12.60;;;5.45;;
13797;SDS011;6970;51.340;3.240;2024-01-30T06:22:33;12.55;;;5.28;;
13797;SDS011;6970;51.340;3.240;2024-01-30T06:25:03;11.88;;;5.32;;
13797;SDS011;6970;51.340;3.240;2024-01-30T06:27:31;18.85;;;5.82;;
13797;SDS011;6970;51.340;3.240;2024-01-30T06:29:59;11.55;;;5.00;;
13797;SDS011;6970;51.340;3.240;2024-01-30T06:32:26;13.15;;;5.82;;
13797;SDS011;6970;51.340;3.240;2024-01-30T06:34:55;13.70;;;6.35;;
13797;SDS011;6970;51.340;3.240;2024-01-30T06:37:23;12.68;;;5.50;;
13797;SDS011;6970;51.340;3.240;2024-01-30T06:39:50;13.90;;;6.18;;
13797;SDS011;6970;51.340;3.240;2024-01-30T06:42:19;12.93;;;5.85;;
13797;SDS011;6970;51.340;3.240;2024-01-30T06:44:46;15.25;;;6.40;;
13797;SDS011;6970;51.340;3.240;2024-01-30T06:47:14;13.02;;;6.97;;
13797;SDS011;6970;51.340;3.240;2024-01-30T06:49:42;11.43;;;6.15;;
13797;SDS011;6970;51.340;3.240;2024-01-30T06:52:10;12.13;;;5.60;;
13797;SDS011;6970;51.340;3.240;2024-01-30T06:54:39;17.33;;;6.47;;
13797;SDS011;6970;51.340;3.240;2024-01-30T06:57:06;13.85;;;6.10;;
13797;SDS011;6970;51.340;3.240;2024-01-30T06:59:38;15.15;;;6.25;;
13797;SDS011;6970;51.340;3.240;2024-01-30T07:02:11;14.00;;;5.50;;
13797;SDS011;6970;51.340;3.240;2024-01-30T07:04:41;13.57;;;5.97;;
13797;SDS011;6970;51.340;3.240;2024-01-30T07:07:12;12.30;;;6.00;;
13797;SDS011;6970;51.340;3.240;2024-01-30T07:12:15;12.27;;;5.88;;
13797;SDS011;6970;51.340;3.240;2024-01-30T07:14:44;12.98;;;6.15;;
13797;SDS011;6970;51.340;3.240;2024-01-30T07:17:13;13.57;;;6.25;;
13797;SDS011;6970;51.340;3.240;2024-01-30T07:19:40;15.80;;;6.18;;
13797;SDS011;6970;51.340;3.240;2024-01-30T07:22:09;14.30;;;5.95;;
13797;SDS011;6970;51.340;3.240;2024-01-30T07:24:45;15.40;;;6.53;;
13797;SDS011;6970;51.340;3.240;2024-01-30T07:27:15;11.25;;;5.72;;
13797;SDS011;6970;51.340;3.240;2024-01-30T07:29:44;14.52;;;6.03;;
13797;SDS011;6970;51.340;3.240;2024-01-30T07:32:11;14.90;;;6.28;;
13797;SDS011;6970;51.340;3.240;2024-01-30T07:37:29;12.48;;;6.13;;
13797;SDS011;6970;51.340;3.240;2024-01-30T07:39:56;11.52;;;6.00;;
13797;SDS011;6970;51.340;3.240;2024-01-30T07:42:23;11.45;;;5.32;;
13797;SDS011;6970;51.340;3.240;2024-01-30T07:44:52;16.95;;;6.22;;
13797;SDS011;6970;51.340;3.240;2024-01-30T07:47:23;18.75;;;6.70;;
13797;SDS011;6970;51.340;3.240;2024-01-30T07:49:50;12.13;;;5.30;;
13797;SDS011;6970;51.340;3.240;2024-01-30T07:52:18;12.95;;;5.53;;
13797;SDS011;6970;51.340;3.240;2024-01-30T07:54:45;14.88;;;5.55;;
13797;SDS011;6970;51.340;3.240;2024-01-30T07:57:13;12.85;;;5.35;;
13797;SDS011;6970;51.340;3.240;2024-01-30T07:59:44;17.80;;;4.82;;
13797;SDS011;6970;51.340;3.240;2024-01-30T08:02:14;15.38;;;4.53;;
13797;SDS011;6970;51.340;3.240;2024-01-30T08:04:42;12.10;;;3.95;;
13797;SDS011;6970;51.340;3.240;2024-01-30T08:07:09;14.88;;;3.60;;
13797;SDS011;6970;51.340;3.240;2024-01-30T08:09:36;11.10;;;2.88;;
13797;SDS011;6970;51.340;3.240;2024-01-30T08:12:04;10.07;;;2.47;;
13797;SDS011;6970;51.340;3.240;2024-01-30T08:14:37;11.30;;;2.90;;
13797;SDS011;6970;51.340;3.240;2024-01-30T08:17:06;8.68;;;2.40;;
13797;SDS011;6970;51.340;3.240;2024-01-30T08:19:37;10.93;;;2.30;;
13797;SDS011;6970;51.340;3.240;2024-01-30T08:22:06;10.07;;;2.00;;
13797;SDS011;6970;51.340;3.240;2024-01-30T08:24:34;11.10;;;2.15;;
13797;SDS011;6970;51.340;3.240;2024-01-30T08:27:01;9.27;;;2.10;;
13797;SDS011;6970;51.340;3.240;2024-01-30T08:29:30;10.13;;;1.98;;
13797;SDS011;6970;51.340;3.240;2024-01-30T08:34:28;10.10;;;1.85;;
13797;SDS011;6970;51.340;3.240;2024-01-30T08:36:57;9.23;;;1.50;;
13797;SDS011;6970;51.340;3.240;2024-01-30T08:39:25;12.07;;;2.30;;
13797;SDS011;6970;51.340;3.240;2024-01-30T08:41:54;8.60;;;2.25;;
13797;SDS011;6970;51.340;3.240;2024-01-30T08:44:21;7.13;;;1.17;;
13797;SDS011;6970;51.340;3.240;2024-01-30T08:47:00;6.78;;;1.20;;
13797;SDS011;6970;51.340;3.240;2024-01-30T08:49:30;4.68;;;1.02;;
13797;SDS011;6970;51.340;3.240;2024-01-30T08:54:29;7.30;;;1.23;;
13797;SDS011;6970;51.340;3.240;2024-01-30T08:57:02;4.10;;;0.80;;
13797;SDS011;6970;51.340;3.240;2024-01-30T08:59:31;7.82;;;1.05;;
13797;SDS011;6970;51.340;3.240;2024-01-30T09:02:00;6.85;;;0.90;;
13797;SDS011;6970;51.340;3.240;2024-01-30T09:12:13;3.58;;;0.70;;
13797;SDS011;6970;51.340;3.240;2024-01-30T09:14:47;5.32;;;1.10;;
13797;SDS011;6970;51.340;3.240;2024-01-30T09:17:22;4.43;;;0.80;;
13797;SDS011;6970;51.340;3.240;2024-01-30T09:19:50;4.78;;;1.00;;
13797;SDS011;6970;51.340;3.240;2024-01-30T09:22:17;5.55;;;1.00;;
13797;SDS011;6970;51.340;3.240;2024-01-30T09:24:46;4.47;;;0.95;;
13797;SDS011;6970;51.340;3.240;2024-01-30T09:32:14;4.50;;;0.90;;
13797;SDS011;6970;51.340;3.240;2024-01-30T09:37:13;6.53;;;1.30;;
13797;SDS011;6970;51.340;3.240;2024-01-30T09:42:17;3.78;;;0.80;;
13797;SDS011;6970;51.340;3.240;2024-01-30T09:44:54;6.50;;;1.17;;
13797;SDS011;6970;51.340;3.240;2024-01-30T09:47:22;7.10;;;1.13;;
13797;SDS011;6970;51.340;3.240;2024-01-30T09:49:51;6.57;;;1.10;;
13797;SDS011;6970;51.340;3.240;2024-01-30T09:52:18;3.72;;;1.00;;
13797;SDS011;6970;51.340;3.240;2024-01-30T09:54:46;6.38;;;1.25;;
13797;SDS011;6970;51.340;3.240;2024-01-30T09:57:18;5.45;;;1.02;;
13797;SDS011;6970;51.340;3.240;2024-01-30T10:04:50;6.45;;;1.25;;
13797;SDS011;6970;51.340;3.240;2024-01-30T10:07:20;7.22;;;1.95;;
13797;SDS011;6970;51.340;3.240;2024-01-30T10:09:52;8.38;;;1.50;;
13797;SDS011;6970;51.340;3.240;2024-01-30T10:14:48;10.55;;;1.73;;
13797;SDS011;6970;51.340;3.240;2024-01-30T10:17:19;9.63;;;1.30;;
13797;SDS011;6970;51.340;3.240;2024-01-30T10:19:58;6.25;;;1.10;;
13797;SDS011;6970;51.340;3.240;2024-01-30T10:22:27;10.60;;;1.35;;
13797;SDS011;6970;51.340;3.240;2024-01-30T10:27:31;11.27;;;1.60;;
13797;SDS011;6970;51.340;3.240;2024-01-30T10:29:58;9.80;;;1.40;;
13797;SDS011;6970;51.340;3.240;2024-01-30T10:32:27;10.57;;;1.92;;
13797;SDS011;6970;51.340;3.240;2024-01-30T10:34:55;13.18;;;2.15;;
13797;SDS011;6970;51.340;3.240;2024-01-30T10:37:25;10.88;;;1.85;;
13797;SDS011;6970;51.340;3.240;2024-01-30T10:39:56;10.27;;;1.52;;
13797;SDS011;6970;51.340;3.240;2024-01-30T10:42:35;11.02;;;1.25;;
13797;SDS011;6970;51.340;3.240;2024-01-30T10:45:13;9.45;;;1.83;;
13797;SDS011;6970;51.340;3.240;2024-01-30T10:47:54;8.80;;;1.70;;
13797;SDS011;6970;51.340;3.240;2024-01-30T10:50:28;11.93;;;1.63;;
13797;SDS011;6970;51.340;3.240;2024-01-30T10:52:57;18.10;;;1.98;;
13797;SDS011;6970;51.340;3.240;2024-01-30T10:55:26;13.80;;;1.60;;
13797;SDS011;6970;51.340;3.240;2024-01-30T10:57:56;7.47;;;1.33;;
13797;SDS011;6970;51.340;3.240;2024-01-30T11:00:29;11.98;;;1.70;;
13797;SDS011;6970;51.340;3.240;2024-01-30T11:03:00;11.52;;;1.48;;
13797;SDS011;6970;51.340;3.240;2024-01-30T11:05:28;16.63;;;1.90;;
13797;SDS011;6970;51.340;3.240;2024-01-30T11:08:12;14.15;;;1.67;;
13797;SDS011;6970;51.340;3.240;2024-01-30T11:13:21;11.55;;;2.03;;
13797;SDS011;6970;51.340;3.240;2024-01-30T11:15:52;15.52;;;1.63;;
13797;SDS011;6970;51.340;3.240;2024-01-30T11:18:26;16.55;;;1.75;;
13797;SDS011;6970;51.340;3.240;2024-01-30T11:20:57;13.95;;;2.03;;
13797;SDS011;6970;51.340;3.240;2024-01-30T11:23:27;10.05;;;1.73;;
13797;SDS011;6970;51.340;3.240;2024-01-30T11:28:31;8.90;;;1.60;;
13797;SDS011;6970;51.340;3.240;2024-01-30T11:31:13;12.25;;;1.67;;
13797;SDS011;6970;51.340;3.240;2024-01-30T11:33:45;14.10;;;1.63;;
13797;SDS011;6970;51.340;3.240;2024-01-30T11:36:13;9.82;;;1.70;;
13797;SDS011;6970;51.340;3.240;2024-01-30T11:38:44;10.18;;;1.42;;
13797;SDS011;6970;51.340;3.240;2024-01-30T11:43:51;9.40;;;1.42;;
13797;SDS011;6970;51.340;3.240;2024-01-30T11:46:20;9.20;;;1.35;;
13797;SDS011;6970;51.340;3.240;2024-01-30T11:51:20;6.53;;;1.40;;
13797;SDS011;6970;51.340;3.240;2024-01-30T11:58:51;4.93;;;1.20;;
13797;SDS011;6970;51.340;3.240;2024-01-30T12:03:52;6.97;;;1.55;;
13797;SDS011;6970;51.340;3.240;2024-01-30T12:08:59;9.63;;;1.58;;
13797;SDS011;6970;51.340;3.240;2024-01-30T12:11:30;5.95;;;1.33;;
13797;SDS011;6970;51.340;3.240;2024-01-30T12:13:59;11.38;;;1.73;;
13797;SDS011;6970;51.340;3.240;2024-01-30T12:16:28;7.85;;;1.77;;
13797;SDS011;6970;51.340;3.240;2024-01-30T12:19:00;8.10;;;1.92;;
13797;SDS011;6970;51.340;3.240;2024-01-30T12:21:31;10.02;;;1.58;;
13797;SDS011;6970;51.340;3.240;2024-01-30T12:24:00;10.13;;;1.50;;
13797;SDS011;6970;51.340;3.240;2024-01-30T12:26:27;7.45;;;1.73;;
13797;SDS011;6970;51.340;3.240;2024-01-30T12:28:56;8.50;;;1.67;;
13797;SDS011;6970;51.340;3.240;2024-01-30T12:31:31;8.48;;;1.90;;
13797;SDS011;6970;51.340;3.240;2024-01-30T12:33:59;9.30;;;1.80;;
13797;SDS011;6970;51.340;3.240;2024-01-30T12:36:28;7.10;;;1.77;;
13797;SDS011;6970;51.340;3.240;2024-01-30T12:38:58;6.75;;;1.83;;
13797;SDS011;6970;51.340;3.240;2024-01-30T12:43:57;7.88;;;1.77;;
13797;SDS011;6970;51.340;3.240;2024-01-30T12:46:27;8.65;;;1.75;;
13797;SDS011;6970;51.340;3.240;2024-01-30T12:48:58;9.30;;;2.28;;
13797;SDS011;6970;51.340;3.240;2024-01-30T12:51:27;7.40;;;1.42;;
13797;SDS011;6970;51.340;3.240;2024-01-30T12:56:27;10.25;;;1.50;;
13797;SDS011;6970;51.340;3.240;2024-01-30T13:01:25;10.02;;;1.45;;
13797;SDS011;6970;51.340;3.240;2024-01-30T13:03:54;10.50;;;1.70;;
13797;SDS011;6970;51.340;3.240;2024-01-30T13:06:26;9.43;;;1.38;;
13797;SDS011;6970;51.340;3.240;2024-01-30T13:08:56;9.93;;;1.52;;
13797;SDS011;6970;51.340;3.240;2024-01-30T13:11:25;9.43;;;1.83;;
13797;SDS011;6970;51.340;3.240;2024-01-30T13:13:53;17.17;;;1.80;;
13797;SDS011;6970;51.340;3.240;2024-01-30T13:16:22;10.23;;;1.80;;
13797;SDS011;6970;51.340;3.240;2024-01-30T13:18:53;9.65;;;1.50;;
13797;SDS011;6970;51.340;3.240;2024-01-30T13:21:22;6.38;;;1.30;;
13797;SDS011;6970;51.340;3.240;2024-01-30T13:23:52;6.40;;;1.05;;
13797;SDS011;6970;51.340;3.240;2024-01-30T13:26:20;6.68;;;1.30;;
13797;SDS011;6970;51.340;3.240;2024-01-30T13:31:18;7.22;;;1.50;;
13797;SDS011;6970;51.340;3.240;2024-01-30T13:33:51;8.55;;;1.70;;
13797;SDS011;6970;51.340;3.240;2024-01-30T13:36:18;11.27;;;1.92;;
13797;SDS011;6970;51.340;3.240;2024-01-30T13:38:46;6.80;;;1.63;;
13797;SDS011;6970;51.340;3.240;2024-01-30T13:41:13;5.88;;;1.95;;
13797;SDS011;6970;51.340;3.240;2024-01-30T13:46:14;7.15;;;1.90;;
13797;SDS011;6970;51.340;3.240;2024-01-30T13:48:44;7.90;;;1.60;;
13797;SDS011;6970;51.340;3.240;2024-01-30T13:51:13;7.65;;;1.98;;
13797;SDS011;6970;51.340;3.240;2024-01-30T13:53:43;6.60;;;1.63;;
13797;SDS011;6970;51.340;3.240;2024-01-30T13:58:43;10.70;;;1.90;;
13797;SDS011;6970;51.340;3.240;2024-01-30T14:01:13;5.88;;;1.55;;
13797;SDS011;6970;51.340;3.240;2024-01-30T14:03:42;7.65;;;1.50;;
13797;SDS011;6970;51.340;3.240;2024-01-30T14:06:12;9.48;;;1.70;;
13797;SDS011;6970;51.340;3.240;2024-01-30T14:08:40;12.55;;;2.60;;
13797;SDS011;6970;51.340;3.240;2024-01-30T14:11:11;9.73;;;1.88;;
13797;SDS011;6970;51.340;3.240;2024-01-30T14:13:40;6.22;;;1.60;;
13797;SDS011;6970;51.340;3.240;2024-01-30T14:16:07;6.18;;;1.90;;
13797;SDS011;6970;51.340;3.240;2024-01-30T14:18:35;5.80;;;1.50;;
13797;SDS011;6970;51.340;3.240;2024-01-30T14:28:36;7.03;;;1.95;;
13797;SDS011;6970;51.340;3.240;2024-01-30T14:31:03;6.00;;;1.85;;
13797;SDS011;6970;51.340;3.240;2024-01-30T14:33:31;7.13;;;1.80;;
13797;SDS011;6970;51.340;3.240;2024-01-30T14:35:58;6.85;;;1.48;;
13797;SDS011;6970;51.340;3.240;2024-01-30T14:38:26;8.07;;;1.73;;
13797;SDS011;6970;51.340;3.240;2024-01-30T14:40:56;9.35;;;2.10;;
13797;SDS011;6970;51.340;3.240;2024-01-30T14:43:24;6.10;;;1.88;;
13797;SDS011;6970;51.340;3.240;2024-01-30T14:45:52;9.35;;;2.25;;
13797;SDS011;6970;51.340;3.240;2024-01-30T14:48:23;5.93;;;1.85;;
13797;SDS011;6970;51.340;3.240;2024-01-30T14:50:52;7.50;;;2.03;;
13797;SDS011;6970;51.340;3.240;2024-01-30T14:53:20;8.90;;;2.30;;
13797;SDS011;6970;51.340;3.240;2024-01-30T14:58:17;8.15;;;2.00;;
13797;SDS011;6970;51.340;3.240;2024-01-30T15:00:46;9.82;;;1.83;;
13797;SDS011;6970;51.340;3.240;2024-01-30T15:03:13;6.70;;;1.75;;
13797;SDS011;6970;51.340;3.240;2024-01-30T15:05:40;8.20;;;1.75;;
13797;SDS011;6970;51.340;3.240;2024-01-30T15:08:08;8.43;;;1.80;;
13797;SDS011;6970;51.340;3.240;2024-01-30T15:10:36;7.03;;;1.65;;
13797;SDS011;6970;51.340;3.240;2024-01-30T15:13:09;8.82;;;1.83;;
13797;SDS011;6970;51.340;3.240;2024-01-30T15:15:43;8.02;;;1.92;;
13797;SDS011;6970;51.340;3.240;2024-01-30T15:18:11;8.00;;;2.20;;
13797;SDS011;6970;51.340;3.240;2024-01-30T15:20:38;6.40;;;1.75;;
13797;SDS011;6970;51.340;3.240;2024-01-30T15:23:05;6.43;;;1.77;;
13797;SDS011;6970;51.340;3.240;2024-01-30T15:25:34;10.93;;;2.00;;
13797;SDS011;6970;51.340;3.240;2024-01-30T15:28:02;7.57;;;1.85;;
13797;SDS011;6970;51.340;3.240;2024-01-30T15:32:59;5.40;;;1.52;;
13797;SDS011;6970;51.340;3.240;2024-01-30T15:35:26;8.40;;;1.40;;
13797;SDS011;6970;51.340;3.240;2024-01-30T15:37:57;5.63;;;1.60;;
13797;SDS011;6970;51.340;3.240;2024-01-30T15:40:25;6.88;;;1.60;;
13797;SDS011;6970;51.340;3.240;2024-01-30T15:45:25;8.80;;;1.70;;
13797;SDS011;6970;51.340;3.240;2024-01-30T15:47:56;8.20;;;2.38;;
13797;SDS011;6970;51.340;3.240;2024-01-30T15:50:28;9.50;;;1.80;;
13797;SDS011;6970;51.340;3.240;2024-01-30T15:52:56;7.70;;;2.15;;
13797;SDS011;6970;51.340;3.240;2024-01-30T15:55:25;10.77;;;2.10;;
13797;SDS011;6970;51.340;3.240;2024-01-30T15:57:52;12.88;;;1.83;;
13797;SDS011;6970;51.340;3.240;2024-01-30T16:02:53;8.48;;;1.73;;
13797;SDS011;6970;51.340;3.240;2024-01-30T16:05:21;6.88;;;1.67;;
13797;SDS011;6970;51.340;3.240;2024-01-30T16:07:51;8.07;;;2.00;;
13797;SDS011;6970;51.340;3.240;2024-01-30T16:10:25;6.78;;;2.08;;
13797;SDS011;6970;51.340;3.240;2024-01-30T16:15:22;6.13;;;2.30;;
13797;SDS011;6970;51.340;3.240;2024-01-30T16:20:25;8.18;;;2.20;;
13797;SDS011;6970;51.340;3.240;2024-01-30T16:22:54;7.88;;;2.15;;
13797;SDS011;6970;51.340;3.240;2024-01-30T16:25:21;10.00;;;2.35;;
13797;SDS011;6970;51.340;3.240;2024-01-30T16:27:53;9.05;;;2.15;;
13797;SDS011;6970;51.340;3.240;2024-01-30T16:30:22;8.88;;;2.00;;
13797;SDS011;6970;51.340;3.240;2024-01-30T16:32:51;10.48;;;2.45;;
13797;SDS011;6970;51.340;3.240;2024-01-30T16:35:20;13.05;;;2.90;;
13797;SDS011;6970;51.340;3.240;2024-01-30T16:43:08;7.43;;;2.33;;
13797;SDS011;6970;51.340;3.240;2024-01-30T16:48:07;10.27;;;2.25;;
13797;SDS011;6970;51.340;3.240;2024-01-30T16:50:36;9.68;;;2.30;;
13797;SDS011;6970;51.340;3.240;2024-01-30T16:53:04;7.80;;;2.03;;
13797;SDS011;6970;51.340;3.240;2024-01-30T16:55:31;7.63;;;2.38;;
13797;SDS011;6970;51.340;3.240;2024-01-30T17:00:30;10.52;;;2.30;;
13797;SDS011;6970;51.340;3.240;2024-01-30T17:02:58;6.32;;;2.00;;
13797;SDS011;6970;51.340;3.240;2024-01-30T17:05:31;7.13;;;2.00;;
13797;SDS011;6970;51.340;3.240;2024-01-30T17:07:59;10.05;;;2.10;;
13797;SDS011;6970;51.340;3.240;2024-01-30T17:15:32;6.57;;;1.92;;
13797;SDS011;6970;51.340;3.240;2024-01-30T17:18:01;7.90;;;1.80;;
13797;SDS011;6970;51.340;3.240;2024-01-30T17:20:31;6.10;;;1.70;;
13797;SDS011;6970;51.340;3.240;2024-01-30T17:23:01;5.82;;;2.00;;
13797;SDS011;6970;51.340;3.240;2024-01-30T17:25:28;8.23;;;2.70;;
13797;SDS011;6970;51.340;3.240;2024-01-30T17:27:57;7.35;;;2.45;;
13797;SDS011;6970;51.340;3.240;2024-01-30T17:30:35;8.23;;;2.05;;
13797;SDS011;6970;51.340;3.240;2024-01-30T17:35:36;6.65;;;2.13;;
13797;SDS011;6970;51.340;3.240;2024-01-30T17:38:06;8.32;;;2.10;;
13797;SDS011;6970;51.340;3.240;2024-01-30T17:40:33;8.00;;;2.20;;
13797;SDS011;6970;51.340;3.240;2024-01-30T17:45:30;10.52;;;2.20;;
13797;SDS011;6970;51.340;3.240;2024-01-30T17:47:58;7.90;;;1.90;;
13797;SDS011;6970;51.340;3.240;2024-01-30T17:50:28;9.43;;;2.20;;
13797;SDS011;6970;51.340;3.240;2024-01-30T17:52:56;6.60;;;1.77;;
13797;SDS011;6970;51.340;3.240;2024-01-30T17:55:25;7.35;;;2.10;;
13797;SDS011;6970;51.340;3.240;2024-01-30T17:58:00;5.97;;;1.60;;
13797;SDS011;6970;51.340;3.240;2024-01-30T18:00:28;8.80;;;1.83;;
13797;SDS011;6970;51.340;3.240;2024-01-30T18:02:59;5.75;;;1.75;;
13797;SDS011;6970;51.340;3.240;2024-01-30T18:05:29;6.45;;;2.28;;
13797;SDS011;6970;51.340;3.240;2024-01-30T18:10:26;10.80;;;2.55;;